Time;durP1;ratioP1;P1;durP2;ratioP2;P2;SDS_P1;SDS_P2;PMS_P1;PMS_P2;Temp;Humidity;BMP_temperature;BMP_pressure;BME280_temperature;BME280_humidity;BME280_pressure;Samples;Min_cycle;Max_cycle;Signal;HPM_P1;HPM_P2
2023/09/17 00:01:52;;;;;;;;;;;;;;;24.64;51.76;99375.56;5074132;28;19999;-69
2023/09/17 00:04:17;;;;;;;;;;;;;;;24.64;51.78;99364.88;5072902;28;20437;-72
2023/09/17 00:06:42;;;;;;;;;;;;;;;24.66;51.69;99362.84;5072643;28;19917;-72
2023/09/17 00:09:08;;;;;;;;;;;;;;;24.65;51.54;99361.19;5072644;28;19947;-72
2023/09/17 00:11:33;;;;;;;;;;;;;;;24.65;51.64;99356.66;5055868;28;19921;-72
2023/09/17 00:13:58;;;;;;;;;;;;;;;24.65;51.61;99362.00;5072789;28;20376;-72
2023/09/17 00:16:30;;;;;;;;;;;;;;;24.65;51.56;99359.31;5072558;28;19917;-72
2023/09/17 00:18:56;;;;;;;;;;;;;;;24.65;51.50;99362.00;5072499;28;20414;-72
2023/09/17 00:21:22;;;;;;;;;;;;;;;24.66;51.54;99357.50;5073709;28;19960;-72
2023/09/17 00:23:47;;;;;;;;;;;;;;;24.66;51.43;99354.84;5073543;28;19916;-72
2023/09/17 00:26:12;;;;;;;;;;;;;;;24.63;51.49;99350.69;5073685;28;20406;-72
2023/09/17 00:28:38;;;;;;;;;;;;;;;24.64;51.36;99351.53;5073943;28;20299;-72
2023/09/17 00:31:03;;;;;;;;;;;;;;;24.63;51.30;99348.03;5072629;28;19916;-71
2023/09/17 00:33:28;;;;;;;;;;;;;;;24.62;51.33;99342.88;5073581;28;20354;-72
2023/09/17 00:35:53;;;;;;;;;;;;;;;24.60;51.42;99340.41;5073518;28;19922;-72
2023/09/17 00:38:19;;;;;;;;;;;;;;;24.59;51.34;99333.44;5072054;28;19920;-72
2023/09/17 00:40:45;;;;;;;;;;;;;;;24.56;51.45;99333.78;5072243;28;19916;-72
2023/09/17 00:43:11;;;;;;;;;;;;;;;24.56;51.28;99337.31;5072347;28;20277;-72
2023/09/17 00:45:36;;;;;;;;;;;;;;;24.53;51.17;99328.84;5072100;28;19927;-72
2023/09/17 00:48:03;;;;;;;;;;;;;;;24.51;51.37;99325.50;5073424;28;19917;-72
2023/09/17 00:50:28;;;;;;;;;;;;;;;24.48;51.41;99323.22;5072094;28;19924;-72
2023/09/17 00:52:54;;;;;;;;;;;;;;;24.42;51.54;99322.16;5072601;28;19917;-72
2023/09/17 00:55:19;;;;;;;;;;;;;;;24.39;51.41;99323.38;5072273;28;19917;-72
2023/09/17 00:57:45;;;;;;;;;;;;;;;24.37;51.43;99324.59;5072286;28;20360;-71
2023/09/17 01:00:11;;;;;;;;;;;;;;;24.35;51.51;99323.94;5071910;28;20363;-72
2023/09/17 01:02:36;;;;;;;;;;;;;;;24.32;51.51;99322.50;5071991;28;19922;-72
2023/09/17 01:05:04;;;;;;;;;;;;;;;24.32;51.45;99319.00;5071857;28;19923;-72
2023/09/17 01:07:29;;;;;;;;;;;;;;;24.28;51.53;99312.41;5071881;28;19923;-72
2023/09/17 01:09:54;;;;;;;;;;;;;;;24.25;51.82;99316.28;5071833;28;19920;-71
2023/09/17 01:12:20;;;;;;;;;;;;;;;24.25;51.48;99316.28;5071677;28;19950;-71
2023/09/17 01:14:46;;;;;;;;;;;;;;;24.24;51.44;99327.13;5071691;28;19924;-71
2023/09/17 01:17:11;;;;;;;;;;;;;;;24.23;51.54;99321.00;5072942;28;19927;-71
2023/09/17 01:19:37;;;;;;;;;;;;;;;24.21;51.39;99325.69;5058251;28;19917;-71
2023/09/17 01:22:07;;;;;;;;;;;;;;;24.20;51.44;99324.84;5052862;28;19917;-71
2023/09/17 01:24:36;;;;;;;;;;;;;;;24.20;51.47;99326.69;5051781;28;19916;-71
2023/09/17 01:27:03;;;;;;;;;;;;;;;24.21;51.44;99331.03;5068075;28;19917;-71
2023/09/17 01:29:34;;;;;;;;;;;;;;;24.20;51.38;99329.38;5051297;28;19925;-71
2023/09/17 01:32:00;;;;;;;;;;;;;;;24.19;51.45;99331.22;5051121;28;19917;-70
2023/09/17 01:34:25;;;;;;;;;;;;;;;24.21;51.27;99333.69;5052679;28;20046;-70
2023/09/17 01:36:52;;;;;;;;;;;;;;;24.21;51.19;99333.69;5051813;28;19917;-70
2023/09/17 01:39:22;;;;;;;;;;;;;;;24.22;51.08;99335.31;5051577;28;19917;-71
2023/09/17 01:41:47;;;;;;;;;;;;;;;24.23;51.07;99334.31;5051330;28;19917;-71
2023/09/17 01:44:12;;;;;;;;;;;;;;;24.24;51.05;99329.81;5051203;28;19928;-70
2023/09/17 01:46:38;;;;;;;;;;;;;;;24.24;51.01;99329.81;5051479;28;19927;-72
2023/09/17 01:49:03;;;;;;;;;;;;;;;24.23;51.02;99337.00;5051146;28;20003;-71
2023/09/17 01:51:30;;;;;;;;;;;;;;;24.21;50.83;99323.03;5050891;28;19916;-71
2023/09/17 01:53:55;;;;;;;;;;;;;;;24.20;50.94;99326.69;5060428;28;19928;-71
2023/09/17 01:56:20;;;;;;;;;;;;;;;24.20;50.87;99324.03;5070567;28;19916;-71
2023/09/17 01:58:46;;;;;;;;;;;;;;;24.19;50.77;99315.22;5071873;28;20023;-71
2023/09/17 02:01:11;;;;;;;;;;;;;;;24.18;50.91;99318.06;5070400;28;19924;-71
2023/09/17 02:03:36;;;;;;;;;;;;;;;24.17;50.84;99325.22;5071459;28;20366;-71
2023/09/17 02:06:04;;;;;;;;;;;;;;;24.15;50.89;99319.28;5070534;28;19916;-71
2023/09/17 02:08:29;;;;;;;;;;;;;;;24.14;50.90;99322.13;5070590;28;19978;-71
2023/09/17 02:10:55;;;;;;;;;;;;;;;24.12;50.95;99305.50;5070534;28;19925;-71
2023/09/17 02:13:20;;;;;;;;;;;;;;;24.09;50.91;99306.69;5070538;28;20311;-71
2023/09/17 02:15:45;;;;;;;;;;;;;;;24.07;51.12;99307.91;5071670;28;20008;-71
2023/09/17 02:18:11;;;;;;;;;;;;;;;24.03;51.16;99302.13;5070331;28;19921;-71
2023/09/17 02:20:39;;;;;;;;;;;;;;;24.02;51.15;99311.13;5070539;28;19973;-72
2023/09/17 02:23:04;;;;;;;;;;;;;;;23.98;51.22;99305.34;5069734;28;19923;-71
2023/09/17 02:25:30;;;;;;;;;;;;;;;23.97;51.34;99306.41;5053703;28;19916;-74
2023/09/17 02:27:55;;;;;;;;;;;;;;;23.96;51.53;99307.41;5070362;28;20310;-71
2023/09/17 02:30:20;;;;;;;;;;;;;;;23.93;51.31;99299.78;5070130;28;19923;-67
2023/09/17 02:32:45;;;;;;;;;;;;;;;23.97;52.37;99306.41;5071281;28;19974;-68
2023/09/17 02:35:11;;;;;;;;;;;;;;;24.08;52.14;99302.38;5070579;28;19921;-72
2023/09/17 02:37:37;;;;;;;;;;;;;;;24.20;51.71;99302.69;5071824;28;19916;-74
2023/09/17 02:40:04;;;;;;;;;;;;;;;24.19;51.61;99301.88;5086285;28;19916;-76
2023/09/17 02:42:30;;;;;;;;;;;;;;;24.10;51.52;99292.34;5093867;28;20121;-76
2023/09/17 02:44:55;;;;;;;;;;;;;;;24.04;51.42;99290.44;5075463;28;20415;-76
2023/09/17 02:47:20;;;;;;;;;;;;;;;24.00;51.64;99302.50;5075062;28;19966;-76
2023/09/17 02:49:46;;;;;;;;;;;;;;;23.95;51.76;99303.06;5075407;28;19924;-76
2023/09/17 02:52:11;;;;;;;;;;;;;;;23.87;51.87;99297.88;5074924;28;19928;-76
2023/09/17 02:54:36;;;;;;;;;;;;;;;23.82;51.90;99298.41;5073507;28;19932;-76
2023/09/17 02:57:02;;;;;;;;;;;;;;;23.77;51.82;99295.50;5056513;28;19924;-76
2023/09/17 02:59:27;;;;;;;;;;;;;;;23.75;52.05;99294.00;5056843;28;19943;-76
2023/09/17 03:01:53;;;;;;;;;;;;;;;23.74;52.18;99295.88;5074475;28;20410;-76
2023/09/17 03:04:18;;;;;;;;;;;;;;;23.70;52.16;99294.56;5074405;28;20303;-76
2023/09/17 03:06:44;;;;;;;;;;;;;;;23.65;52.23;99286.31;5074605;28;19946;-76
2023/09/17 03:09:11;;;;;;;;;;;;;;;23.64;52.58;99292.66;5073363;28;20413;-76
2023/09/17 03:11:37;;;;;;;;;;;;;;;23.63;52.54;99286.50;5074569;28;19970;-76
2023/09/17 03:14:02;;;;;;;;;;;;;;;23.63;52.39;99289.19;5073073;28;19921;-76
2023/09/17 03:16:29;;;;;;;;;;;;;;;23.64;52.48;99284.66;5073216;28;20516;-76
2023/09/17 03:18:55;;;;;;;;;;;;;;;23.64;52.24;99290.84;5073467;28;19923;-74
2023/09/17 03:21:21;;;;;;;;;;;;;;;23.65;52.38;99294.31;5056439;28;20307;-76
2023/09/17 03:23:46;;;;;;;;;;;;;;;23.64;52.45;99301.50;5072900;28;19944;-76
2023/09/17 03:26:11;;;;;;;;;;;;;;;23.62;52.53;99297.38;5072989;28;19926;-76
2023/09/17 03:28:36;;;;;;;;;;;;;;;23.62;52.54;99297.38;5072868;28;20307;-76
2023/09/17 03:31:03;;;;;;;;;;;;;;;23.62;52.61;99300.03;5073880;28;19963;-76
2023/09/17 03:33:29;;;;;;;;;;;;;;;23.63;52.64;99299.03;5072947;28;19927;-76
2023/09/17 03:35:54;;;;;;;;;;;;;;;23.63;52.54;99291.84;5073951;28;19916;-75
2023/09/17 03:38:20;;;;;;;;;;;;;;;23.64;52.74;99293.50;5055688;28;19924;-75
2023/09/17 03:40:45;;;;;;;;;;;;;;;23.66;52.73;99294.13;5074056;28;19916;-75
2023/09/17 03:43:11;;;;;;;;;;;;;;;23.68;52.69;99296.63;5055927;28;19929;-75
2023/09/17 03:45:36;;;;;;;;;;;;;;;23.67;52.83;99301.13;5072667;28;19999;-76
2023/09/17 03:48:01;;;;;;;;;;;;;;;23.69;52.73;99300.09;5055878;28;20051;-74
2023/09/17 03:50:37;;;;;;;;;;;;;;;23.66;53.03;99296.81;5055928;28;19916;-76
2023/09/17 03:53:05;;;;;;;;;;;;;;;23.67;52.95;99302.94;5056871;28;19942;-77
2023/09/17 03:55:31;;;;;;;;;;;;;;;23.67;52.77;99306.47;5056626;28;19963;-75
2023/09/17 03:57:57;;;;;;;;;;;;;;;23.67;53.02;99305.59;5073390;28;19916;-77
2023/09/17 04:00:23;;;;;;;;;;;;;;;23.67;53.08;99302.94;5056957;28;19970;-76
2023/09/17 04:02:54;;;;;;;;;;;;;;;23.70;53.04;99301.75;5073022;28;19946;-76
2023/09/17 04:05:21;;;;;;;;;;;;;;;23.72;52.90;99305.06;5072451;28;19917;-76
2023/09/17 04:07:46;;;;;;;;;;;;;;;23.75;52.95;99310.84;5056437;28;19971;-76
2023/09/17 04:10:12;;;;;;;;;;;;;;;23.82;52.91;99308.25;5072848;28;20015;-75
2023/09/17 04:12:38;;;;;;;;;;;;;;;23.85;52.87;99307.91;5072647;28;20015;-76
2023/09/17 04:15:08;;;;;;;;;;;;;;;23.93;52.61;99306.97;5072931;28;19917;-76
2023/09/17 04:17:33;;;;;;;;;;;;;;;24.14;52.04;99306.94;5073054;28;19917;-77
2023/09/17 04:19:58;;;;;;;;;;;;;;;24.34;51.52;99314.31;5073867;28;19917;-76
2023/09/17 04:22:24;;;;;;;;;;;;;;;24.51;51.13;99309.50;5056156;28;20410;-76
2023/09/17 04:24:49;;;;;;;;;;;;;;;24.67;50.83;99314.59;5055686;28;19916;-76
2023/09/17 04:27:15;;;;;;;;;;;;;;;24.78;50.40;99317.72;5072480;28;20036;-75
2023/09/17 04:29:40;;;;;;;;;;;;;;;24.80;50.54;99316.53;5072834;28;19964;-75
2023/09/17 04:32:06;;;;;;;;;;;;;;;24.73;50.82;99308.47;5072452;28;19966;-77
2023/09/17 04:34:31;;;;;;;;;;;;;;;24.70;50.60;99308.03;5072187;28;19916;-76
2023/09/17 04:36:58;;;;;;;;;;;;;;;24.71;50.53;99317.69;5072477;28;19920;-76
2023/09/17 04:39:27;;;;;;;;;;;;;;;24.73;50.53;99315.66;5072374;28;19921;-76
2023/09/17 04:41:52;;;;;;;;;;;;;;;24.76;50.75;99317.13;5073463;28;20366;-76
2023/09/17 04:44:17;;;;;;;;;;;;;;;24.76;50.59;99320.59;5071609;28;19981;-75
2023/09/17 04:46:43;;;;;;;;;;;;;;;24.76;50.67;99319.78;5073637;28;20372;-76
2023/09/17 04:49:12;;;;;;;;;;;;;;;24.74;50.85;99320.78;5073519;28;20007;-77
2023/09/17 04:51:37;;;;;;;;;;;;;;;24.74;51.04;99317.31;5073696;28;19916;-75
2023/09/17 04:54:02;;;;;;;;;;;;;;;24.75;50.81;99324.31;5072198;28;20295;-77
2023/09/17 04:56:28;;;;;;;;;;;;;;;24.74;51.01;99326.13;5072244;28;20074;-76
2023/09/17 04:58:53;;;;;;;;;;;;;;;24.74;50.96;99323.47;5072101;28;19973;-76
2023/09/17 05:01:19;;;;;;;;;;;;;;;24.72;51.02;99319.34;5071838;28;19923;-75
2023/09/17 05:03:46;;;;;;;;;;;;;;;24.71;51.10;99323.84;5105468;28;19924;-77
2023/09/17 05:06:12;;;;;;;;;;;;;;;24.76;51.23;99328.59;5072171;28;20453;-77
2023/09/17 05:08:37;;;;;;;;;;;;;;;24.91;50.84;99328.53;5071105;28;19916;-77
2023/09/17 05:11:03;;;;;;;;;;;;;;;25.26;50.11;99325.81;5055142;28;19947;-77
2023/09/17 05:13:28;;;;;;;;;;;;;;;26.10;48.02;99329.25;5071968;28;20367;-75
2023/09/17 05:15:53;;;;;;;;;;;;;;;27.02;46.07;99324.06;5055206;28;19924;-76
2023/09/17 05:18:19;;;;;;;;;;;;;;;27.88;44.20;99330.13;5072201;28;19923;-77
2023/09/17 05:20:44;;;;;;;;;;;;;;;28.61;42.58;99335.03;5072100;28;19917;-76
2023/09/17 05:23:10;;;;;;;;;;;;;;;29.26;41.18;99339.16;5071543;28;19916;-77
2023/09/17 05:25:36;;;;;;;;;;;;;;;29.83;39.37;99332.66;5071687;28;20337;-76
2023/09/17 05:28:06;;;;;;;;;;;;;;;30.36;38.00;99333.72;5054749;28;20011;-75
2023/09/17 05:30:31;;;;;;;;;;;;;;;30.81;37.15;99333.19;5071619;28;19923;-75
2023/09/17 05:32:56;;;;;;;;;;;;;;;31.18;36.50;99339.13;5072968;28;19916;-77
2023/09/17 05:35:22;;;;;;;;;;;;;;;31.47;35.92;99338.34;5073062;28;19951;-77
2023/09/17 05:37:47;;;;;;;;;;;;;;;31.64;35.35;99341.97;5071691;28;20026;-76
2023/09/17 05:40:12;;;;;;;;;;;;;;;31.96;34.64;99338.78;5072590;28;19925;-69
2023/09/17 05:42:38;;;;;;;;;;;;;;;32.27;34.15;99333.94;5073074;28;19951;-70
2023/09/17 05:45:03;;;;;;;;;;;;;;;32.57;33.58;99332.78;5071197;28;19920;-69
2023/09/17 05:47:29;;;;;;;;;;;;;;;32.87;32.99;99332.44;5071965;28;19916;-70
2023/09/17 05:49:55;;;;;;;;;;;;;;;33.08;32.81;99340.81;5071386;28;19988;-69
2023/09/17 05:52:21;;;;;;;;;;;;;;;33.33;32.54;99343.88;5072612;28;19916;-69
2023/09/17 05:54:46;;;;;;;;;;;;;;;33.49;32.08;99344.84;5053366;28;19916;-70
2023/09/17 05:57:11;;;;;;;;;;;;;;;33.67;31.24;99346.44;5072603;28;19920;-70
2023/09/17 05:59:37;;;;;;;;;;;;;;;33.89;30.76;99334.78;5072774;28;19920;-69
2023/09/17 06:02:02;;;;;;;;;;;;;;;34.06;30.49;99332.78;5072497;28;19917;-70
2023/09/17 06:04:27;;;;;;;;;;;;;;;34.33;29.74;99339.22;5054529;28;19921;-68
2023/09/17 06:06:53;;;;;;;;;;;;;;;34.46;29.90;99335.25;5071633;28;20309;-70
2023/09/17 06:09:18;;;;;;;;;;;;;;;34.61;29.41;99343.50;5072658;28;19932;-70
2023/09/17 06:11:43;;;;;;;;;;;;;;;34.76;29.14;99346.34;5072462;28;19978;-70
2023/09/17 06:14:08;;;;;;;;;;;;;;;34.77;29.74;99339.03;5072935;28;20395;-71
2023/09/17 06:16:34;;;;;;;;;;;;;;;34.93;29.37;99345.34;5072098;28;19917;-70
2023/09/17 06:18:59;;;;;;;;;;;;;;;35.12;28.77;99349.25;5074968;28;19917;-70
2023/09/17 06:21:24;;;;;;;;;;;;;;;35.32;28.48;99347.72;5074825;28;19916;-70
2023/09/17 06:23:50;;;;;;;;;;;;;;;35.49;28.26;99340.19;5075932;28;19916;-72
2023/09/17 06:26:15;;;;;;;;;;;;;;;35.67;27.98;99346.22;5076146;28;19921;-70
2023/09/17 06:28:40;;;;;;;;;;;;;;;35.97;27.97;99347.38;5072633;28;20292;-70
2023/09/17 06:31:06;;;;;;;;;;;;;;;36.38;27.62;99348.22;5091604;28;19923;-71
2023/09/17 06:33:33;;;;;;;;;;;;;;;36.80;26.89;99357.19;5076078;28;19924;-72
2023/09/17 06:35:58;;;;;;;;;;;;;;;36.88;26.41;99355.78;5091472;28;19930;-70
2023/09/17 06:38:24;;;;;;;;;;;;;;;36.42;27.13;99362.09;5075831;28;20011;-70
2023/09/17 06:40:49;;;;;;;;;;;;;;;35.78;28.00;99360.66;5108956;28;19916;-71
2023/09/17 06:43:15;;;;;;;;;;;;;;;35.29;28.50;99359.94;5075868;28;19921;-73
2023/09/17 06:45:40;;;;;;;;;;;;;;;34.90;29.04;99357.56;5093415;28;19975;-74
2023/09/17 06:48:06;;;;;;;;;;;;;;;34.47;29.34;99359.38;5108571;28;19923;-78
2023/09/17 06:50:31;;;;;;;;;;;;;;;34.33;30.10;99356.31;5126610;28;20058;-77
2023/09/17 06:52:56;;;;;;;;;;;;;;;34.02;30.00;99363.31;5086497;28;19924;-79
2023/09/17 06:55:22;;;;;;;;;;;;;;;34.18;30.30;99354.25;5101275;28;19916;-83
2023/09/17 06:57:47;;;;;;;;;;;;;;;33.69;31.17;99360.50;5097513;28;19924;-79
2023/09/17 07:00:14;;;;;;;;;;;;;;;34.04;30.60;99359.28;5103386;28;19958;-76
2023/09/17 07:02:39;;;;;;;;;;;;;;;33.92;31.50;99364.03;5086479;28;19924;-76
2023/09/17 07:05:07;;;;;;;;;;;;;;;33.53;31.55;99364.94;5089027;28;19920;-73
2023/09/17 07:07:32;;;;;;;;;;;;;;;34.17;30.46;99354.50;5083733;28;19971;-72
2023/09/17 07:09:58;;;;;;;;;;;;;;;34.59;29.99;99357.31;5078194;28;20315;-72
2023/09/17 07:12:23;;;;;;;;;;;;;;;35.02;29.24;99348.38;5075524;28;20320;-73
2023/09/17 07:14:48;;;;;;;;;;;;;;;35.13;29.29;99350.06;5073779;28;20368;-74
2023/09/17 07:17:14;;;;;;;;;;;;;;;35.05;28.67;99347.88;5082786;28;19917;-71
2023/09/17 07:19:39;;;;;;;;;;;;;;;35.11;28.98;99354.94;5081551;28;19920;-73
2023/09/17 07:22:10;;;;;;;;;;;;;;;35.28;28.74;99360.19;5083332;28;19921;-72
2023/09/17 07:24:36;;;;;;;;;;;;;;;34.74;29.63;99359.34;5080079;28;19920;-74
2023/09/17 07:27:01;;;;;;;;;;;;;;;34.28;29.92;99350.84;5081585;28;19940;-72
2023/09/17 07:29:26;;;;;;;;;;;;;;;34.91;29.20;99348.31;5073756;28;19917;-72
2023/09/17 07:31:52;;;;;;;;;;;;;;;34.72;29.25;99356.03;5068519;28;20334;-74
2023/09/17 07:34:17;;;;;;;;;;;;;;;34.12;29.82;99359.88;5104285;28;19921;-73
2023/09/17 07:36:42;;;;;;;;;;;;;;;33.72;30.33;99362.75;5070960;28;20330;-76
2023/09/17 07:39:09;;;;;;;;;;;;;;;33.36;31.23;99362.31;5072850;28;19931;-74
2023/09/17 07:41:34;;;;;;;;;;;;;;;33.25;31.44;99365.16;5072683;28;20311;-75
2023/09/17 07:43:59;;;;;;;;;;;;;;;32.91;31.82;99357.06;5043465;28;19921;-74
2023/09/17 07:46:25;;;;;;;;;;;;;;;32.72;32.08;99353.81;5069285;28;19924;-74
2023/09/17 07:48:50;;;;;;;;;;;;;;;32.57;32.49;99360.59;5067626;28;19932;-76
2023/09/17 07:51:16;;;;;;;;;;;;;;;32.43;32.68;99356.59;5064697;28;19975;-74
2023/09/17 07:53:41;;;;;;;;;;;;;;;32.30;32.87;99357.75;5067599;28;19917;-74
2023/09/17 07:56:07;;;;;;;;;;;;;;;33.10;31.98;99357.59;5068232;28;19978;-75
2023/09/17 07:58:32;;;;;;;;;;;;;;;33.88;30.72;99347.47;5100248;28;19924;-74
2023/09/17 08:00:58;;;;;;;;;;;;;;;34.49;30.05;99353.72;5087423;28;19921;-74
2023/09/17 08:03:23;;;;;;;;;;;;;;;35.02;29.44;99348.38;5068637;28;19970;-72
2023/09/17 08:05:49;;;;;;;;;;;;;;;35.57;28.73;99349.72;5059363;28;19971;-73
2023/09/17 08:08:14;;;;;;;;;;;;;;;36.00;27.96;99346.84;5067982;28;19920;-76
2023/09/17 08:10:40;;;;;;;;;;;;;;;35.14;29.14;99349.81;5052204;28;20008;-76
2023/09/17 08:13:06;;;;;;;;;;;;;;;34.60;29.81;99358.13;5086627;28;20372;-72
2023/09/17 08:15:31;;;;;;;;;;;;;;;34.13;29.75;99351.50;5060552;28;20011;-72
2023/09/17 08:17:56;;;;;;;;;;;;;;;33.76;30.96;99351.41;5070648;28;20376;-72
2023/09/17 08:20:22;;;;;;;;;;;;;;;33.39;31.11;99343.94;5072383;28;19924;-74
2023/09/17 08:22:49;;;;;;;;;;;;;;;33.11;31.82;99349.25;5104244;28;19993;-73
2023/09/17 08:25:14;;;;;;;;;;;;;;;33.78;30.97;99344.69;5068296;28;19920;-72
2023/09/17 08:27:40;;;;;;;;;;;;;;;33.30;31.47;99336.25;5071900;28;19924;-73
2023/09/17 08:30:11;;;;;;;;;;;;;;;32.98;31.97;99336.91;5058037;28;19920;-71
2023/09/17 08:32:37;;;;;;;;;;;;;;;32.78;32.23;99342.03;5059432;28;19971;-72
2023/09/17 08:35:03;;;;;;;;;;;;;;;32.59;32.79;99334.19;5071028;28;19920;-70
2023/09/17 08:37:29;;;;;;;;;;;;;;;32.65;32.99;99335.09;5104298;28;19916;-72
2023/09/17 08:39:54;;;;;;;;;;;;;;;33.43;31.81;99337.78;5119539;27;19938;-80
2023/09/17 08:42:21;;;;;;;;;;;;;;;34.16;31.57;99321.19;5093754;28;19912;-72
2023/09/17 08:44:47;;;;;;;;;;;;;;;34.64;30.19;99315.88;5071558;28;20307;-73
2023/09/17 08:47:13;;;;;;;;;;;;;;;35.05;29.05;99326.16;5103518;28;19921;-73
2023/09/17 08:49:39;;;;;;;;;;;;;;;35.26;28.97;99325.19;5071498;28;19927;-72
2023/09/17 08:52:04;;;;;;;;;;;;;;;35.52;28.33;99319.84;5087065;28;19917;-71
2023/09/17 08:54:33;;;;;;;;;;;;;;;35.76;27.74;99320.19;5103363;28;19982;-72
2023/09/17 08:56:59;;;;;;;;;;;;;;;35.96;27.37;99321.28;5070068;28;20379;-77
2023/09/17 08:59:26;;;;;;;;;;;;;;;36.22;27.09;99316.69;5070307;28;19955;-72
2023/09/17 09:01:51;;;;;;;;;;;;;;;35.90;27.67;99319.66;5070966;28;20413;-72
2023/09/17 09:04:17;;;;;;;;;;;;;;;35.15;28.82;99321.59;5063656;28;19925;-72
2023/09/17 09:06:43;;;;;;;;;;;;;;;34.78;29.42;99318.97;5057976;28;20028;-73
2023/09/17 09:09:08;;;;;;;;;;;;;;;35.56;28.27;99317.41;5062648;28;19960;-71
2023/09/17 09:11:34;;;;;;;;;;;;;;;35.92;27.14;99318.31;5052530;28;20007;-72
2023/09/17 09:14:01;;;;;;;;;;;;;;;36.22;27.11;99314.78;5069587;28;19917;-73
2023/09/17 09:16:26;;;;;;;;;;;;;;;36.52;26.80;99315.88;5052124;28;19913;-73
2023/09/17 09:18:52;;;;;;;;;;;;;;;36.68;26.32;99315.84;5052653;28;19916;-74
2023/09/17 09:21:17;;;;;;;;;;;;;;;36.76;25.76;99312.56;5053479;28;19924;-73
2023/09/17 09:23:42;;;;;;;;;;;;;;;36.79;25.77;99314.75;5068869;28;19921;-72
2023/09/17 09:26:08;;;;;;;;;;;;;;;36.78;26.02;99312.31;5069814;28;20007;-72
2023/09/17 09:28:33;;;;;;;;;;;;;;;36.02;26.71;99318.28;5070752;28;20353;-72
2023/09/17 09:30:58;;;;;;;;;;;;;;;35.49;27.22;99318.47;5051929;28;19920;-71
2023/09/17 09:33:24;;;;;;;;;;;;;;;35.18;27.77;99319.44;5069070;28;20374;-72
2023/09/17 09:35:49;;;;;;;;;;;;;;;34.77;28.31;99315.41;5069295;28;19921;-72
2023/09/17 09:38:15;;;;;;;;;;;;;;;34.57;28.13;99310.69;5052926;28;19916;-73
2023/09/17 09:40:42;;;;;;;;;;;;;;;34.59;28.80;99307.72;5087032;28;20407;-73
2023/09/17 09:43:16;;;;;;;;;;;;;;;34.51;28.80;99317.16;5059914;28;20291;-75
2023/09/17 09:45:42;;;;;;;;;;;;;;;34.78;28.59;99311.66;5068671;28;20085;-74
2023/09/17 09:48:12;;;;;;;;;;;;;;;34.92;28.32;99306.56;5069249;28;20056;-72
2023/09/17 09:50:37;;;;;;;;;;;;;;;35.18;28.19;99298.53;5067320;28;20384;-72
2023/09/17 09:53:03;;;;;;;;;;;;;;;35.20;27.77;99301.78;5073364;28;19978;-73
2023/09/17 09:55:28;;;;;;;;;;;;;;;34.93;28.31;99293.81;5074464;28;20053;-73
2023/09/17 09:57:53;;;;;;;;;;;;;;;35.29;27.94;99294.00;5074809;28;19927;-73
2023/09/17 10:00:26;;;;;;;;;;;;;;;35.49;27.04;99290.53;5074383;28;20360;-74
2023/09/17 10:02:51;;;;;;;;;;;;;;;35.67;27.53;99289.19;5073281;28;19924;-74
2023/09/17 10:05:18;;;;;;;;;;;;;;;35.79;27.64;99292.50;5089155;28;20227;-68
2023/09/17 10:07:47;;;;;;;;;;;;;;;35.73;27.00;99288.13;5067230;28;19942;-73
2023/09/17 10:10:12;;;;;;;;;;;;;;;35.73;26.69;99290.81;5072884;28;19925;-71
2023/09/17 10:12:37;;;;;;;;;;;;;;;35.82;25.58;99285.69;5072241;28;20004;-72
2023/09/17 10:15:04;;;;;;;;;;;;;;;35.86;25.33;99274.03;5052586;28;19928;-70
2023/09/17 10:17:30;;;;;;;;;;;;;;;35.76;24.95;99282.19;5089083;28;19923;-71
2023/09/17 10:19:55;;;;;;;;;;;;;;;35.78;24.66;99282.72;5056282;28;20426;-70
2023/09/17 10:22:20;;;;;;;;;;;;;;;35.67;24.31;99278.31;5071266;28;19916;-74
2023/09/17 10:24:46;;;;;;;;;;;;;;;35.63;24.45;99278.06;5059287;28;19960;-71
2023/09/17 10:27:13;;;;;;;;;;;;;;;35.61;24.40;99277.50;5056778;28;19925;-72
2023/09/17 10:29:38;;;;;;;;;;;;;;;35.62;24.51;99281.03;5059736;28;19932;-72
2023/09/17 10:32:04;;;;;;;;;;;;;;;35.51;24.37;99275.59;5056610;28;19924;-70
2023/09/17 10:34:35;;;;;;;;;;;;;;;35.44;24.10;99277.75;5092619;28;19916;-67
2023/09/17 10:37:01;;;;;;;;;;;;;;;35.42;24.51;99279.91;5093496;28;19916;-68
2023/09/17 10:39:26;;;;;;;;;;;;;;;35.37;25.03;99273.66;5093871;28;19924;-71
2023/09/17 10:41:53;;;;;;;;;;;;;;;35.34;25.30;99266.84;5071511;28;19921;-67
2023/09/17 10:44:19;;;;;;;;;;;;;;;35.37;25.30;99260.91;5073192;28;19960;-68
2023/09/17 10:46:45;;;;;;;;;;;;;;;35.30;25.07;99258.44;5072815;28;19974;-69
2023/09/17 10:49:11;;;;;;;;;;;;;;;35.22;25.13;99256.22;5089343;28;19955;-68
2023/09/17 10:51:37;;;;;;;;;;;;;;;35.14;25.22;99260.28;5069991;28;19974;-69
2023/09/17 10:54:03;;;;;;;;;;;;;;;35.10;25.29;99259.16;5089030;28;19971;-69
2023/09/17 10:56:29;;;;;;;;;;;;;;;35.04;25.12;99252.09;5072981;28;19956;-71
2023/09/17 10:58:54;;;;;;;;;;;;;;;34.95;25.08;99257.22;5088227;28;20006;-69
2023/09/17 11:01:38;;;;;;;;;;;;;;;34.88;25.48;99245.78;5075127;28;19934;-68
2023/09/17 11:04:12;;;;;;;;;;;;;;;34.64;25.35;99245.38;5086921;28;19977;-67
2023/09/17 11:06:38;;;;;;;;;;;;;;;34.48;25.50;99239.06;5055385;28;19981;-69
2023/09/17 11:09:06;;;;;;;;;;;;;;;34.13;24.98;99239.59;5072191;28;20387;-69
2023/09/17 11:11:32;;;;;;;;;;;;;;;34.06;25.35;99235.25;5073048;28;19921;-69
2023/09/17 11:13:57;;;;;;;;;;;;;;;33.97;25.70;99235.97;5072175;28;19993;-68
2023/09/17 11:16:26;;;;;;;;;;;;;;;33.87;26.10;99223.19;5071025;28;19913;-70
2023/09/17 11:19:05;;;;;;;;;;;;;;;33.89;25.63;99226.47;5071234;28;19974;-68
2023/09/17 11:21:32;;;;;;;;;;;;;;;33.89;26.20;99221.84;5054917;28;19912;-68
2023/09/17 11:23:58;;;;;;;;;;;;;;;33.86;25.93;99229.69;5054973;28;19920;-69
2023/09/17 11:26:27;;;;;;;;;;;;;;;33.77;25.89;99220.41;5071787;28;19919;-69
2023/09/17 11:28:56;;;;;;;;;;;;;;;33.65;26.05;99220.53;5071724;28;19921;-68
2023/09/17 11:31:22;;;;;;;;;;;;;;;33.52;25.84;99213.66;5070078;28;19916;-69
2023/09/17 11:33:48;;;;;;;;;;;;;;;33.26;27.50;99223.41;5105978;27;19920;-68
2023/09/17 11:36:13;;;;;;;;;;;;;;;33.03;27.95;99219.06;5065598;28;19917;-68
2023/09/17 11:38:38;;;;;;;;;;;;;;;32.84;26.17;99222.09;5071102;28;19930;-68
2023/09/17 11:41:05;;;;;;;;;;;;;;;32.70;26.11;99218.94;5071507;28;20368;-75
2023/09/17 11:43:30;;;;;;;;;;;;;;;32.60;27.20;99213.38;5055200;28;19966;-71
2023/09/17 11:45:56;;;;;;;;;;;;;;;32.53;26.59;99210.88;5073371;28;19924;-72
2023/09/17 11:48:21;;;;;;;;;;;;;;;32.43;27.85;99206.16;5075319;28;19924;-72
2023/09/17 11:50:47;;;;;;;;;;;;;;;32.29;29.42;99210.25;5071452;28;20367;-71
2023/09/17 11:53:14;;;;;;;;;;;;;;;32.09;27.94;99210.78;5054735;28;19924;-72
2023/09/17 11:55:40;;;;;;;;;;;;;;;31.95;28.04;99201.34;5071393;28;19920;-73
2023/09/17 11:58:18;;;;;;;;;;;;;;;31.80;28.41;99200.06;5071649;28;19926;-72
2023/09/17 12:00:43;;;;;;;;;;;;;;;31.80;28.96;99199.22;5070337;28;19916;-72
2023/09/17 12:03:11;;;;;;;;;;;;;;;31.71;28.37;99194.22;5071382;28;20082;-72
2023/09/17 12:05:36;;;;;;;;;;;;;;;31.62;28.12;99193.00;5090704;28;19923;-73
2023/09/17 12:08:02;;;;;;;;;;;;;;;31.62;28.70;99193.00;5052051;28;19921;-73
2023/09/17 12:10:30;;;;;;;;;;;;;;;31.49;28.63;99190.59;5050242;28;19928;-66
2023/09/17 12:12:57;;;;;;;;;;;;;;;31.45;28.49;99186.72;5066818;28;19921;-68
2023/09/17 12:15:22;;;;;;;;;;;;;;;31.22;28.99;99185.78;5071217;28;19916;-69
2023/09/17 12:17:48;;;;;;;;;;;;;;;31.20;29.42;99191.44;5071574;28;19977;-69
2023/09/17 12:21:14;;;;;;;;;;;;;;;31.17;29.71;99175.72;5071980;28;20403;-68
2023/09/17 12:23:27;;;;;;;;;;;;;;;31.13;29.64;99177.25;5066168;28;19917;-68
2023/09/17 12:25:52;;;;;;;;;;;;;;;31.06;30.29;99173.06;5071794;28;19921;-68
2023/09/17 12:28:25;;;;;;;;;;;;;;;30.83;29.74;99172.88;5048676;28;19961;-68
2023/09/17 12:30:50;;;;;;;;;;;;;;;30.85;30.29;99169.94;5060490;28;19931;-69
2023/09/17 12:33:16;;;;;;;;;;;;;;;30.92;30.59;99169.84;5064184;28;19916;-69
2023/09/17 12:35:42;;;;;;;;;;;;;;;30.97;30.19;99164.56;5052641;28;19928;-69
2023/09/17 12:38:08;;;;;;;;;;;;;;;30.99;30.41;99174.03;5079284;28;20380;-67
2023/09/17 12:40:33;;;;;;;;;;;;;;;31.08;29.84;99174.47;5048424;28;19920;-68
2023/09/17 12:42:58;;;;;;;;;;;;;;;30.97;29.94;99161.88;5064050;28;19962;-67